Time;durP1;ratioP1;P1;durP2;ratioP2;P2;SDS_P1;SDS_P2;PMS_P1;PMS_P2;Temp;Humidity;BMP_temperature;BMP_pressure;BME280_temperature;BME280_humidity;BME280_pressure;Samples;Min_cycle;Max_cycle;Signal;HPM_P1;HPM_P2
2022/06/18 00:02:18;;;;;;;5.07;1.55;;;;;;;27.85;35.63;101290.19;4905438;29;20043;-66
2022/06/18 00:05:03;;;;;;;7.63;1.70;;;;;;;27.85;36.19;101284.59;4886991;29;20417;-67
2022/06/18 00:07:54;;;;;;;3.30;1.88;;;;;;;27.86;35.85;101285.38;4894458;29;20048;-66
2022/06/18 00:10:39;;;;;;;4.35;1.55;;;;;;;27.82;35.80;101285.44;4898168;29;20420;-65
2022/06/18 00:13:39;;;;;;;3.95;1.80;;;;;;;27.82;35.56;101287.44;4898700;29;20145;-67
2022/06/18 00:16:24;;;;;;;4.93;1.88;;;;;;;27.80;35.80;101276.66;4880192;29;20408;-67
2022/06/18 00:19:09;;;;;;;4.63;1.60;;;;;;;27.81;35.88;101281.06;4879300;29;20048;-68
2022/06/18 00:21:54;;;;;;;4.38;1.73;;;;;;;27.78;35.90;101284.69;4904620;29;20051;-66
2022/06/18 00:24:39;;;;;;;5.30;1.50;;;;;;;27.64;35.52;101282.84;4914057;29;20054;-67
2022/06/18 00:27:24;;;;;;;4.38;1.58;;;;;;;27.56;36.22;101286.16;4917450;29;20068;-66
2022/06/18 00:30:12;;;;;;;5.78;2.05;;;;;;;27.48;35.82;101296.59;4917859;29;20051;-66
2022/06/18 00:32:57;;;;;;;6.47;1.40;;;;;;;27.39;35.66;101293.50;4888014;29;20436;-66
2022/06/18 00:35:43;;;;;;;4.68;1.10;;;;;;;27.34;35.73;101288.38;4879512;29;20528;-66
2022/06/18 00:38:45;;;;;;;6.63;1.85;;;;;;;27.36;35.62;101293.56;4899727;29;20052;-66
2022/06/18 00:41:33;;;;;;;4.72;2.60;;;;;;;27.39;36.05;101284.34;4899560;29;20048;-66
2022/06/18 00:44:35;;;;;;;6.00;1.80;;;;;;;27.41;35.65;101281.94;4905809;29;20055;-66
2022/06/18 00:47:29;;;;;;;4.35;1.63;;;;;;;27.34;36.04;101273.63;4905938;29;20055;-66
2022/06/18 00:50:27;;;;;;;6.85;1.92;;;;;;;27.37;36.35;101256.84;4898513;29;20064;-68
2022/06/18 00:53:14;;;;;;;2.67;1.58;;;;;;;27.40;35.84;101263.56;4898520;29;20053;-67
2022/06/18 00:56:06;;;;;;;4.95;1.40;;;;;;;27.38;36.33;101258.41;4897736;29;20068;-66
2022/06/18 00:59:00;;;;;;;5.43;1.70;;;;;;;27.43;36.27;101262.75;4897749;29;20421;-66
2022/06/18 01:01:48;;;;;;;3.20;1.63;;;;;;;27.49;36.30;101258.28;4898986;29;20043;-65
2022/06/18 01:04:35;;;;;;;7.63;1.75;;;;;;;27.55;37.08;101253.84;4914831;29;20636;-65
2022/06/18 01:07:27;;;;;;;12.25;1.40;;;;;;;27.63;37.66;101266.53;4913781;29;20058;-67
2022/06/18 01:10:19;;;;;;;4.43;1.88;;;;;;;27.65;37.15;101266.88;4898234;29;20401;-66
2022/06/18 01:13:08;;;;;;;4.22;2.20;;;;;;;27.63;36.00;101272.13;4898122;29;20060;-66
2022/06/18 01:15:55;;;;;;;9.45;1.70;;;;;;;27.62;37.19;101276.13;4899355;29;20056;-66
2022/06/18 01:18:40;;;;;;;9.27;1.55;;;;;;;27.52;36.47;101279.84;4907157;29;20055;-65
2022/06/18 01:21:34;;;;;;;2.85;1.98;;;;;;;27.61;37.64;101288.50;4907615;29;20068;-65
2022/06/18 01:24:31;;;;;;;4.50;1.75;;;;;;;27.65;38.71;101280.84;4910625;29;20538;-66
2022/06/18 01:27:17;;;;;;;6.50;1.50;;;;;;;27.64;38.21;101285.66;4916099;29;20066;-66
2022/06/18 01:30:10;;;;;;;4.43;1.58;;;;;;;27.51;37.69;101281.03;4901200;29;20052;-66
2022/06/18 01:32:59;;;;;;;6.38;1.48;;;;;;;27.55;38.79;101281.78;4897695;29;20059;-65
2022/06/18 01:35:51;;;;;;;3.60;1.50;;;;;;;27.53;38.52;101287.00;4897779;29;20047;-66
2022/06/18 01:38:46;;;;;;;8.75;2.45;;;;;;;27.55;36.64;101281.78;4896833;29;20047;-65
2022/06/18 01:41:52;;;;;;;4.32;2.25;;;;;;;27.46;35.89;101287.84;4897005;29;20048;-66
2022/06/18 01:44:54;;;;;;;2.38;1.30;;;;;;;27.48;38.62;101276.28;4907981;29;20055;-67
2022/06/18 01:47:52;;;;;;;4.78;1.60;;;;;;;27.50;36.97;101285.84;4915915;29;20043;-68
2022/06/18 01:50:55;;;;;;;4.93;1.88;;;;;;;27.48;38.09;101284.66;4897991;29;20048;-69
2022/06/18 01:53:47;;;;;;;3.38;1.40;;;;;;;27.45;36.91;101279.88;4897451;29;20134;-68
2022/06/18 01:56:41;;;;;;;4.47;1.70;;;;;;;27.42;36.50;101280.72;4897185;29;20528;-67
2022/06/18 01:59:40;;;;;;;9.68;1.65;;;;;;;27.42;37.58;101278.72;4897189;29;20052;-67
2022/06/18 02:02:27;;;;;;;3.65;1.60;;;;;;;27.42;38.65;101277.94;4896930;29;20102;-67
2022/06/18 02:05:14;;;;;;;7.07;2.15;;;;;;;27.38;36.19;101277.19;4909023;29;20059;-66
2022/06/18 02:07:59;;;;;;;3.75;1.40;;;;;;;27.37;38.69;101272.81;4913112;29;20047;-68
2022/06/18 02:10:52;;;;;;;3.80;1.75;;;;;;;27.36;36.19;101274.78;4916441;29;20055;-67
2022/06/18 02:13:42;;;;;;;3.90;1.70;;;;;;;27.37;38.38;101272.81;4916086;29;20047;-68
2022/06/18 02:16:30;;;;;;;2.70;1.33;;;;;;;27.26;35.06;101272.13;4909474;29;20043;-69
2022/06/18 02:19:18;;;;;;;3.40;1.60;;;;;;;27.24;35.81;101270.53;4895486;29;20052;-69
2022/06/18 02:22:06;;;;;;;2.67;1.20;;;;;;;27.27;38.29;101274.50;4908908;29;20416;-68
2022/06/18 02:24:51;;;;;;;3.42;1.50;;;;;;;27.23;35.73;101276.53;4907792;29;20047;-69
2022/06/18 02:27:39;;;;;;;3.53;1.20;;;;;;;27.32;37.59;101281.63;4903228;29;20060;-67
2022/06/18 02:30:28;;;;;;;6.13;1.73;;;;;;;27.31;35.66;101280.84;4896728;29;20064;-67
2022/06/18 02:33:44;;;;;;;7.95;1.50;;;;;;;27.32;36.62;101279.63;4935358;23;20050;-76
2022/06/18 02:36:32;;;;;;;2.28;1.23;;;;;;;27.40;39.09;101285.94;4946451;29;20054;-75
2022/06/18 02:39:23;;;;;;;3.55;1.92;;;;;;;27.53;38.98;101287.00;4948666;29;20514;-75
2022/06/18 02:42:14;;;;;;;5.63;1.30;;;;;;;27.57;38.84;101282.16;4949710;28;20046;-77
2022/06/18 02:45:04;;;;;;;6.38;1.67;;;;;;;27.58;37.20;101290.13;4934378;29;20063;-75
2022/06/18 02:47:50;;;;;;;2.47;1.30;;;;;;;27.55;37.07;101292.97;4934511;29;20051;-77
2022/06/18 02:50:41;;;;;;;3.53;1.50;;;;;;;27.50;37.36;101297.00;4944984;23;20059;-64
2022/06/18 02:53:27;;;;;;;5.93;1.80;;;;;;;27.43;36.86;101304.66;4914150;29;20063;-66
2022/06/18 02:56:14;;;;;;;3.20;1.33;;;;;;;27.48;36.91;101298.63;4926586;29;20054;-66
2022/06/18 02:58:59;;;;;;;2.42;1.20;;;;;;;27.47;36.27;101297.81;4926675;29;20163;-66
2022/06/18 03:01:44;;;;;;;8.13;1.55;;;;;;;27.41;37.49;101299.47;4934748;29;20070;-66
2022/06/18 03:04:29;;;;;;;5.32;1.45;;;;;;;27.51;37.65;101308.97;4925762;29;20047;-66
2022/06/18 03:07:14;;;;;;;2.45;1.45;;;;;;;27.48;37.87;101296.59;4914644;29;20051;-66
2022/06/18 03:13:03;;;;;;;5.32;2.05;;;;;;;27.49;39.01;101305.78;4915801;29;20644;-66
2022/06/18 03:15:54;;;;;;;6.03;1.40;;;;;;;27.51;37.85;101306.19;4915198;29;20061;-67
2022/06/18 03:18:40;;;;;;;9.75;2.33;;;;;;;27.39;37.85;101295.50;4914625;29;20423;-66
2022/06/18 03:21:39;;;;;;;4.45;1.60;;;;;;;27.37;37.11;101298.75;4910273;29;20051;-66
2022/06/18 03:24:24;;;;;;;4.35;1.75;;;;;;;27.42;37.84;101306.66;4922063;29;20055;-66
2022/06/18 03:27:10;;;;;;;4.20;1.58;;;;;;;27.39;37.22;101306.69;4919216;29;20130;-66
2022/06/18 03:29:57;;;;;;;2.17;1.40;;;;;;;27.33;38.16;101309.13;4918260;29;20052;-66
2022/06/18 03:32:42;;;;;;;2.05;1.30;;;;;;;27.28;39.37;101308.81;4917029;29;20055;-66
2022/06/18 03:35:27;;;;;;;5.30;1.77;;;;;;;27.18;38.61;101313.28;4917064;29;20437;-66
2022/06/18 03:38:14;;;;;;;16.40;2.08;;;;;;;27.07;39.79;101313.38;4914447;29;20503;-66
2022/06/18 03:41:01;;;;;;;5.40;1.70;;;;;;;27.16;37.85;101312.91;4935508;29;20062;-66
2022/06/18 03:43:48;;;;;;;8.93;1.58;;;;;;;27.08;37.04;101325.34;4935657;29;20055;-66
2022/06/18 03:46:39;;;;;;;13.95;2.55;;;;;;;26.88;37.40;101313.16;4924048;29;20519;-66
2022/06/18 03:49:31;;;;;;;5.70;2.00;;;;;;;26.22;38.96;101325.19;4917984;29;20039;-66
2022/06/18 03:52:19;;;;;;;20.80;2.13;;;;;;;26.13;39.43;101319.22;4915882;29;20064;-66
2022/06/18 03:55:05;;;;;;;12.40;2.72;;;;;;;25.94;39.77;101319.75;4914868;29;20063;-66
2022/06/18 03:57:50;;;;;;;7.93;2.30;;;;;;;25.89;40.20;101322.94;4913799;29;20051;-66
2022/06/18 04:00:36;;;;;;;7.28;3.55;;;;;;;25.81;40.62;101326.94;4908634;29;20122;-66
2022/06/18 04:03:21;;;;;;;4.30;2.75;;;;;;;25.39;41.67;101323.09;4916396;29;20075;-66
2022/06/18 04:06:07;;;;;;;12.70;2.38;;;;;;;25.69;41.10;101330.19;4908393;29;20047;-65
2022/06/18 04:08:53;;;;;;;3.20;1.50;;;;;;;25.84;41.12;101331.72;4913376;29;20054;-66
2022/06/18 04:11:39;;;;;;;3.72;2.00;;;;;;;26.08;41.01;101330.81;4923744;29;20408;-65
2022/06/18 04:14:24;;;;;;;5.63;1.92;;;;;;;26.18;41.17;101329.97;4926019;29;20051;-65
2022/06/18 04:17:33;;;;;;;4.38;2.42;;;;;;;26.36;40.21;101329.91;4907015;29;20056;-64
2022/06/18 04:20:27;;;;;;;13.65;2.88;;;;;;;26.56;41.05;101330.97;4908662;29;20059;-65
2022/06/18 04:23:15;;;;;;;5.13;1.65;;;;;;;26.75;40.49;101326.81;4913002;29;20048;-65
2022/06/18 04:26:02;;;;;;;4.03;1.50;;;;;;;26.85;41.09;101327.94;4926549;29;20051;-65
2022/06/18 04:28:49;;;;;;;4.60;1.75;;;;;;;26.92;41.00;101333.50;4930459;29;20047;-66
2022/06/18 04:31:36;;;;;;;10.55;2.58;;;;;;;27.00;39.84;101333.00;4919448;29;20068;-66
2022/06/18 04:34:20;;;;;;;9.10;2.10;;;;;;;27.12;40.54;101335.28;4916522;29;20066;-66
2022/06/18 04:37:29;;;;;;;2.95;1.48;;;;;;;27.08;39.88;101344.91;4930652;29;20059;-65
2022/06/18 04:40:33;;;;;;;4.63;2.83;;;;;;;27.09;39.54;101343.69;4934086;29;20514;-64
2022/06/18 04:43:28;;;;;;;2.70;1.73;;;;;;;27.21;40.17;101346.78;4924691;29;20047;-65
2022/06/18 04:46:14;;;;;;;5.43;2.75;;;;;;;27.20;38.56;101336.81;4916120;29;20047;-63
2022/06/18 04:49:05;;;;;;;12.23;2.75;;;;;;;27.12;38.70;101338.06;4935956;29;20051;-64
2022/06/18 04:51:50;;;;;;;10.07;2.40;;;;;;;27.10;37.97;101340.50;4922539;29;20573;-64
2022/06/18 04:54:46;;;;;;;6.05;2.33;;;;;;;26.97;39.29;101335.84;4925478;29;20055;-64
2022/06/18 04:57:31;;;;;;;10.90;1.88;;;;;;;27.02;39.51;101335.41;4932515;29;20043;-65
2022/06/18 05:00:19;;;;;;;16.48;2.42;;;;;;;27.02;38.03;101341.75;4919460;29;20066;-64
2022/06/18 05:03:23;;;;;;;6.28;1.95;;;;;;;26.88;37.75;101335.50;4904655;29;20400;-64
2022/06/18 05:06:31;;;;;;;5.20;2.10;;;;;;;26.99;38.43;101342.59;4919327;29;20055;-71
2022/06/18 05:09:48;;;;;;;2.92;1.92;;;;;;;27.06;39.04;101352.91;4931359;29;20055;-64
2022/06/18 05:12:52;;;;;;;6.45;1.65;;;;;;;27.15;38.06;101354.00;4940656;29;20055;-65
2022/06/18 05:15:58;;;;;;;11.48;1.80;;;;;;;27.12;38.31;101345.69;4934861;29;20059;-65
2022/06/18 05:18:46;;;;;;;8.45;2.13;;;;;;;27.12;37.78;101348.47;4918772;29;20723;-65
2022/06/18 05:21:31;;;;;;;7.90;2.20;;;;;;;27.23;38.33;101363.91;4921431;29;20042;-66
2022/06/18 05:24:17;;;;;;;10.82;1.40;;;;;;;27.37;36.37;101363.00;4928897;29;20415;-66
2022/06/18 05:27:03;;;;;;;10.90;2.03;;;;;;;27.27;37.53;101363.09;4916670;29;20059;-66
2022/06/18 05:29:48;;;;;;;7.05;1.70;;;;;;;27.15;38.56;101354.00;4916557;29;20428;-68
2022/06/18 05:36:55;;;;;;;3.33;1.60;;;;;;;27.36;38.51;101364.19;4915720;29;20063;-66
2022/06/18 05:39:41;;;;;;;6.30;1.83;;;;;;;27.39;38.12;101370.94;4924409;29;20063;-66
2022/06/18 05:42:26;;;;;;;4.55;1.55;;;;;;;27.46;37.60;101362.50;4935241;29;20051;-64
2022/06/18 05:45:14;;;;;;;2.55;1.55;;;;;;;27.45;36.86;101363.69;4897794;29;20068;-63
2022/06/18 05:48:00;;;;;;;6.85;2.20;;;;;;;27.48;37.72;101365.69;4897203;29;20084;-64
2022/06/18 05:50:46;;;;;;;12.85;3.63;;;;;;;27.53;37.83;101368.06;4923416;29;20070;-66
2022/06/18 05:53:32;;;;;;;11.70;2.45;;;;;;;27.53;38.28;101370.84;4926943;29;20043;-64
2022/06/18 05:56:33;;;;;;;10.77;1.98;;;;;;;27.61;37.90;101375.94;4919950;29;20067;-65
2022/06/18 05:59:32;;;;;;;9.80;2.65;;;;;;;27.67;37.78;101378.28;4917174;29;20055;-65
2022/06/18 06:02:19;;;;;;;3.75;1.60;;;;;;;27.76;37.31;101387.75;4916455;29;20047;-65
2022/06/18 06:05:05;;;;;;;5.95;1.95;;;;;;;27.72;38.23;101377.81;4926955;29;20059;-63
2022/06/18 06:07:50;;;;;;;9.55;2.40;;;;;;;27.75;38.07;101386.16;4932254;29;20047;-65
2022/06/18 06:13:42;;;;;;;9.63;2.40;;;;;;;27.76;38.29;101393.34;4911757;29;20051;-67
2022/06/18 06:16:29;;;;;;;108.20;22.45;;;;;;;27.83;38.55;101392.47;4922572;29;20411;-64
2022/06/18 06:19:19;;;;;;;44.08;9.70;;;;;;;27.82;38.90;101394.47;4910949;29;20423;-65
2022/06/18 06:22:04;;;;;;;24.27;5.53;;;;;;;27.81;38.68;101390.09;4914890;29;20059;-64
2022/06/18 06:24:49;;;;;;;23.23;5.53;;;;;;;27.77;38.76;101386.53;4914203;29;20055;-64
2022/06/18 06:27:34;;;;;;;4.60;2.33;;;;;;;27.86;38.74;101392.41;4927426;29;20056;-65
2022/06/18 06:30:18;;;;;;;;;;;;;;;27.97;38.96;101387.50;4909796;29;20121;-64
2022/06/18 06:33:03;;;;;;;4.88;2.00;;;;;;;27.98;39.06;101389.09;4923684;29;19919;-64
2022/06/18 06:35:51;;;;;;;5.40;1.80;;;;;;;27.97;38.68;101390.28;4928762;29;20051;-65
2022/06/18 06:38:37;;;;;;;6.47;1.60;;;;;;;27.97;38.04;101395.88;4934085;29;20059;-64
2022/06/18 06:41:25;;;;;;;7.85;1.98;;;;;;;27.96;38.42;101387.91;4932691;29;20063;-64
2022/06/18 06:44:10;;;;;;;8.82;2.13;;;;;;;28.07;37.95;101392.16;4915501;29;20051;-64
2022/06/18 06:46:55;;;;;;;10.77;2.25;;;;;;;28.09;38.03;101394.53;4912979;29;20431;-64
2022/06/18 06:49:41;;;;;;;8.30;2.05;;;;;;;27.98;38.25;101391.88;4919934;29;20051;-66
2022/06/18 06:52:26;;;;;;;4.68;2.20;;;;;;;28.16;38.20;101400.06;4918608;29;20420;-66
2022/06/18 06:58:26;;;;;;;5.68;1.90;;;;;;;28.13;37.68;101388.94;4902006;29;20047;-66
2022/06/18 07:01:10;;;;;;;2.88;1.80;;;;;;;28.24;37.61;101387.56;4918422;29;20047;-66
2022/06/18 07:03:58;;;;;;;8.32;1.60;;;;;;;28.20;36.82;101394.41;4899495;29;20408;-65
2022/06/18 07:06:43;;;;;;;8.43;1.90;;;;;;;28.21;36.37;101384.81;4908479;29;20047;-65
2022/06/18 07:09:28;;;;;;;6.68;2.28;;;;;;;28.18;35.90;101386.47;4934084;29;20063;-64
2022/06/18 07:12:13;;;;;;;6.88;2.10;;;;;;;28.21;36.20;101387.63;4934098;29;20055;-65
2022/06/18 07:15:00;;;;;;;11.10;2.78;;;;;;;28.14;35.72;101385.69;4939560;29;20217;-65
2022/06/18 07:17:44;;;;;;;5.60;1.48;;;;;;;28.34;35.36;101391.47;4933773;29;20415;-64
2022/06/18 07:20:30;;;;;;;4.68;2.17;;;;;;;28.39;35.40;101391.00;4934387;29;20063;-64
2022/06/18 07:23:15;;;;;;;2.83;1.58;;;;;;;28.41;34.63;101377.34;4933850;29;20042;-65
2022/06/18 07:26:02;;;;;;;4.80;1.67;;;;;;;28.56;35.08;101384.31;4915595;29;20091;-66
2022/06/18 07:28:47;;;;;;;14.45;2.45;;;;;;;28.47;34.71;101386.88;4908877;29;20047;-66
2022/06/18 07:31:33;;;;;;;2.70;1.60;;;;;;;28.69;34.59;101392.94;4933700;29;20296;-66
2022/06/18 07:34:18;;;;;;;11.60;1.85;;;;;;;28.80;34.98;101390.81;4923488;29;20510;-66
2022/06/18 07:37:04;;;;;;;8.75;2.08;;;;;;;28.78;34.15;101382.03;4914943;29;20133;-66
2022/06/18 07:39:49;;;;;;;6.05;2.20;;;;;;;28.95;34.35;101377.38;4901096;29;20048;-65
2022/06/18 07:42:35;;;;;;;5.20;1.83;;;;;;;28.89;34.33;101375.06;4900373;29;20059;-63
2022/06/18 07:45:22;;;;;;;6.07;1.90;;;;;;;29.11;34.15;101378.25;4905866;29;20071;-63
2022/06/18 07:48:07;;;;;;;5.32;2.10;;;;;;;29.11;33.44;101381.06;4903084;29;20074;-64
2022/06/18 07:50:52;;;;;;;6.68;1.80;;;;;;;29.10;32.94;101373.13;4896337;29;20071;-63
2022/06/18 07:53:38;;;;;;;7.88;1.83;;;;;;;29.00;33.54;101366.47;4908955;29;20488;-63
2022/06/18 07:56:23;;;;;;;4.35;1.70;;;;;;;29.09;33.39;101379.94;4903057;29;20052;-64
2022/06/18 07:59:09;;;;;;;2.78;1.60;;;;;;;29.13;32.58;101361.84;4907378;29;20055;-63
2022/06/18 08:01:54;;;;;;;10.68;2.33;;;;;;;29.18;33.68;101357.75;4911209;29;20047;-64
2022/06/18 08:04:39;;;;;;;22.17;3.65;;;;;;;29.44;33.14;101353.31;4910700;29;20051;-64
2022/06/18 08:07:25;;;;;;;5.07;2.38;;;;;;;29.49;33.43;101356.41;4917154;29;20051;-64
2022/06/18 08:10:10;;;;;;;2.53;1.83;;;;;;;29.54;32.74;101352.31;4912161;29;20062;-64
2022/06/18 08:12:55;;;;;;;3.13;1.85;;;;;;;29.75;32.78;101352.69;4922631;29;20043;-64
2022/06/18 08:15:42;;;;;;;7.97;1.75;;;;;;;29.83;32.95;101353.31;4922460;29;20055;-64
2022/06/18 08:18:27;;;;;;;8.48;1.77;;;;;;;29.60;32.27;101353.41;4926025;29;20066;-63
2022/06/18 08:21:21;;;;;;;5.32;2.38;;;;;;;29.86;32.25;101346.88;4936182;29;20047;-63
2022/06/18 08:24:13;;;;;;;3.97;1.63;;;;;;;29.95;32.27;101349.09;4936778;29;20562;-63
2022/06/18 08:26:58;;;;;;;3.70;2.22;;;;;;;30.00;32.76;101351.41;4927148;29;20527;-63
2022/06/18 08:29:43;;;;;;;4.90;1.60;;;;;;;30.08;32.20;101348.00;4936297;29;20055;-63
2022/06/18 08:32:28;;;;;;;6.45;1.63;;;;;;;30.10;31.58;101350.38;4936810;29;20058;-63
2022/06/18 08:35:14;;;;;;;4.68;1.95;;;;;;;30.12;31.84;101353.56;4990303;23;20062;-64
2022/06/18 08:37:59;;;;;;;4.93;1.42;;;;;;;30.11;31.79;101360.38;4954524;29;20054;-63
2022/06/18 08:40:54;;;;;;;12.57;1.70;;;;;;;30.18;32.24;101349.78;4955508;29;20050;-64
2022/06/18 08:43:58;;;;;;;3.13;1.87;;;;;;;30.23;32.17;101351.28;4955680;28;20497;-62
2022/06/18 08:46:46;;;;;;;4.97;1.50;;;;;;;30.47;30.79;101347.16;4952104;29;20290;-63
2022/06/18 08:49:42;;;;;;;5.30;2.75;;;;;;;30.43;31.59;101348.41;4955576;29;20501;-64
2022/06/18 08:52:59;;;;;;;2.88;1.80;;;;;;;30.51;31.36;101347.88;4949932;28;20047;-63
2022/06/18 08:56:12;;;;;;;7.70;2.17;;;;;;;30.45;30.24;101360.00;4949895;29;20505;-63
2022/06/18 08:59:07;;;;;;;7.35;1.70;;;;;;;30.34;31.34;101353.84;4953876;29;20054;-63
2022/06/18 09:02:06;;;;;;;4.85;1.80;;;;;;;30.46;31.28;101356.81;4947064;28;20418;-63
2022/06/18 09:05:08;;;;;;;4.25;1.70;;;;;;;30.52;31.12;101352.25;4951595;29;20038;-62
2022/06/18 09:08:10;;;;;;;7.07;1.90;;;;;;;30.59;31.55;101356.91;4951806;29;20049;-63
2022/06/18 09:11:06;;;;;;;18.92;2.05;;;;;;;30.59;31.72;101359.72;4950926;28;20038;-63
2022/06/18 09:14:03;;;;;;;12.90;2.30;;;;;;;30.77;31.00;101359.28;4956211;28;20070;-63
2022/06/18 09:17:10;;;;;;;5.15;2.00;;;;;;;30.68;30.68;101359.13;4948939;28;20070;-62
2022/06/18 09:20:08;;;;;;;8.85;2.38;;;;;;;30.93;30.67;101362.88;4953842;29;20418;-63
2022/06/18 09:22:56;;;;;;;3.00;1.83;;;;;;;30.83;29.55;101361.13;4955236;28;20051;-63
2022/06/18 09:25:47;;;;;;;6.40;1.75;;;;;;;30.97;29.57;101362.78;4940129;29;20054;-62
2022/06/18 09:28:41;;;;;;;5.30;1.42;;;;;;;30.97;29.25;101357.97;4944729;29;20062;-63
2022/06/18 09:31:35;;;;;;;6.28;1.83;;;;;;;31.11;31.19;101368.06;4955035;29;20058;-63
2022/06/18 09:34:46;;;;;;;11.23;2.85;;;;;;;31.14;30.24;101369.22;4948314;28;20050;-63
2022/06/18 09:37:37;;;;;;;7.55;2.72;;;;;;;31.22;29.75;101362.97;4945892;29;20055;-63
2022/06/18 09:40:29;;;;;;;3.65;2.00;;;;;;;31.32;29.84;101363.91;4950650;28;20042;-63
2022/06/18 09:43:26;;;;;;;4.90;2.17;;;;;;;31.33;30.14;101366.31;4952671;28;20046;-63
2022/06/18 09:46:48;;;;;;;3.40;1.70;;;;;;;31.17;30.91;101355.09;4954545;29;20046;-63
2022/06/18 09:49:33;;;;;;;6.63;1.95;;;;;;;31.27;31.46;101358.84;4952570;28;20415;-63
2022/06/18 09:52:31;;;;;;;3.92;2.05;;;;;;;31.34;30.31;101353.03;4953268;29;20050;-62
2022/06/18 09:55:36;;;;;;;4.07;2.05;;;;;;;31.42;29.48;101349.56;4954109;28;20050;-62
2022/06/18 09:58:30;;;;;;;;;;;;;;;31.59;28.78;101341.13;4951702;28;20061;-61
2022/06/18 10:01:20;;;;;;;4.43;1.83;;;;;;;31.64;28.04;101346.22;4951610;29;19915;-63
2022/06/18 10:07:11;;;;;;;8.13;2.00;;;;;;;31.57;28.81;101350.00;4939089;29;20063;-63
2022/06/18 10:10:18;;;;;;;1.75;1.33;;;;;;;31.83;27.85;101346.03;4954091;29;20050;-61
2022/06/18 10:13:11;;;;;;;6.00;1.85;;;;;;;31.93;27.79;101337.72;4953983;29;20512;-63
2022/06/18 10:16:03;;;;;;;3.50;1.75;;;;;;;31.82;29.55;101329.59;4955331;28;20407;-62
2022/06/18 10:19:03;;;;;;;5.00;2.03;;;;;;;31.92;29.46;101341.75;4945044;29;20397;-62
2022/06/18 10:22:15;;;;;;;4.43;1.67;;;;;;;32.13;28.77;101341.16;4952428;29;20050;-61
2022/06/18 10:25:13;;;;;;;6.63;2.10;;;;;;;32.16;28.85;101337.44;4950420;29;20050;-61
2022/06/18 10:28:33;;;;;;;5.63;1.90;;;;;;;32.29;29.13;101340.28;4948685;28;20042;-61
2022/06/18 10:31:32;;;;;;;5.38;2.92;;;;;;;32.29;30.28;101331.81;4958258;28;20433;-61
2022/06/18 10:34:49;;;;;;;7.35;2.63;;;;;;;32.35;29.24;101332.84;4953568;29;20058;-61
2022/06/18 10:37:46;;;;;;;11.02;3.03;;;;;;;32.12;29.69;101329.09;4952450;28;20061;-62
2022/06/18 10:41:09;;;;;;;30.88;7.40;;;;;;;32.13;29.53;101327.09;4957259;28;20046;-62
2022/06/18 10:44:01;;;;;;;;;;;;;;;32.15;29.04;101327.44;4952575;29;20404;-61
2022/06/18 10:46:59;;;;;;;5.70;2.08;;;;;;;32.37;29.61;101324.72;4952516;29;19915;-63
2022/06/18 10:49:46;;;;;;;6.80;2.28;;;;;;;32.30;29.30;101325.75;4950643;29;20050;-62
2022/06/18 10:52:31;;;;;;;6.90;2.45;;;;;;;32.34;29.18;101317.19;4949198;29;20046;-60
2022/06/18 10:55:20;;;;;;;4.25;1.90;;;;;;;32.43;29.89;101317.28;4953442;28;20058;-61
2022/06/18 10:58:12;;;;;;;11.50;2.22;;;;;;;32.43;29.07;101308.84;4952111;28;20050;-61
2022/06/18 11:01:11;;;;;;;7.10;2.55;;;;;;;32.34;29.55;101311.56;4949960;29;20054;-63
2022/06/18 11:03:59;;;;;;;8.82;2.97;;;;;;;32.23;29.66;101301.41;4951163;29;20058;-62
2022/06/18 11:06:46;;;;;;;9.88;2.13;;;;;;;32.34;29.34;101311.56;4945752;29;20046;-61
2022/06/18 11:09:50;;;;;;;8.65;2.13;;;;;;;32.35;28.82;101302.66;4951324;29;20112;-60
2022/06/18 11:12:38;;;;;;;10.73;2.03;;;;;;;32.21;29.59;101303.88;4951079;29;20058;-62
2022/06/18 11:15:26;;;;;;;2.78;1.77;;;;;;;32.25;28.99;101295.34;4952096;28;20065;-61
2022/06/18 11:18:18;;;;;;;8.65;2.20;;;;;;;32.39;28.72;101294.88;4952615;28;20561;-61
2022/06/18 11:21:05;;;;;;;5.88;1.98;;;;;;;32.53;27.97;101285.19;4950442;29;20050;-61
2022/06/18 11:24:00;;;;;;;5.28;1.75;;;;;;;32.57;27.13;101283.03;4947464;29;20046;-62
2022/06/18 11:27:00;;;;;;;4.65;1.92;;;;;;;32.70;28.53;101288.69;4945992;29;20046;-62
2022/06/18 11:29:51;;;;;;;5.53;2.17;;;;;;;32.80;28.50;101284.72;4949998;29;20522;-61
2022/06/18 11:32:46;;;;;;;3.17;1.80;;;;;;;32.72;28.06;101278.50;4953183;28;20046;-61
2022/06/18 11:35:36;;;;;;;2.40;1.70;;;;;;;32.75;27.61;101277.63;4951975;29;20148;-62
2022/06/18 11:38:49;;;;;;;5.28;2.33;;;;;;;32.92;28.45;101281.84;4952406;29;20047;-61
2022/06/18 11:41:44;;;;;;;2.80;1.88;;;;;;;32.92;28.39;101279.03;4952701;28;20065;-61
2022/06/18 11:44:40;;;;;;;5.15;1.85;;;;;;;33.17;28.99;101268.94;4949422;29;20042;-62
2022/06/18 11:47:36;;;;;;;8.32;2.47;;;;;;;33.00;28.95;101265.47;4950431;29;20058;-61
2022/06/18 11:50:28;;;;;;;3.33;2.10;;;;;;;33.09;28.68;101260.69;4950343;29;20529;-61
2022/06/18 11:53:23;;;;;;;6.03;2.00;;;;;;;32.96;28.70;101262.00;4952374;29;20058;-61
2022/06/18 11:56:23;;;;;;;11.25;3.53;;;;;;;32.93;28.96;101258.06;4946579;29;20066;-61
2022/06/18 11:59:20;;;;;;;13.80;3.17;;;;;;;32.84;28.83;101249.53;4950583;29;20077;-61
2022/06/18 12:02:14;;;;;;;7.75;2.00;;;;;;;32.95;29.40;101240.69;4950617;29;20046;-61
2022/06/18 12:05:11;;;;;;;2.85;1.70;;;;;;;32.91;29.17;101245.69;4951724;29;20238;-61
2022/06/18 12:07:58;;;;;;;5.32;2.20;;;;;;;32.88;28.67;101241.72;4951707;29;20407;-60
2022/06/18 12:10:49;;;;;;;6.10;1.83;;;;;;;33.02;28.17;101231.97;4950123;29;20046;-62
2022/06/18 12:13:48;;;;;;;7.30;2.30;;;;;;;33.12;28.41;101227.22;4952199;29;20054;-61
2022/06/18 12:16:57;;;;;;;5.53;2.25;;;;;;;33.03;27.75;101239.97;4951376;29;20042;-61
2022/06/18 12:19:53;;;;;;;5.13;2.17;;;;;;;33.29;28.04;101220.16;4947811;29;20043;-62
2022/06/18 12:22:46;;;;;;;5.25;2.10;;;;;;;33.42;28.55;101220.88;4954494;28;20046;-62
2022/06/18 12:25:49;;;;;;;4.97;2.03;;;;;;;33.37;28.36;101218.66;4947728;28;20039;-60
2022/06/18 12:29:11;;;;;;;2.60;2.08;;;;;;;33.18;27.82;101217.72;4951046;29;20094;-61
2022/06/18 12:32:08;;;;;;;3.65;2.00;;;;;;;33.12;28.73;101215.94;4951476;29;20043;-61
2022/06/18 12:35:08;;;;;;;5.88;2.20;;;;;;;33.29;28.93;101214.50;4950879;29;20050;-61
2022/06/18 12:38:04;;;;;;;4.72;2.05;;;;;;;33.26;28.02;101207.75;4949286;29;20042;-62
2022/06/18 12:41:08;;;;;;;6.80;3.05;;;;;;;33.39;28.06;101204.84;4950436;29;20474;-61
2022/06/18 12:44:03;;;;;;;5.20;2.03;;;;;;;33.52;27.57;101214.03;4947944;29;20047;-61
2022/06/18 12:46:54;;;;;;;8.20;2.17;;;;;;;33.38;28.60;101209.72;4949773;29;20282;-61
2022/06/18 12:49:40;;;;;;;7.70;2.20;;;;;;;33.39;28.05;101213.31;4949554;29;20046;-61
2022/06/18 12:52:39;;;;;;;23.35;3.95;;;;;;;33.36;27.90;101215.03;4954547;29;20050;-61
2022/06/18 12:55:42;;;;;;;23.05;2.92;;;;;;;33.43;27.56;101208.31;4951631;29;20082;-62
2022/06/18 12:58:26;;;;;;;4.70;2.05;;;;;;;33.36;27.41;101206.56;4954508;29;20042;-61
2022/06/18 13:01:19;;;;;;;225.48;15.00;;;;;;;33.45;27.70;101194.56;4952663;29;20058;-61
2022/06/18 13:04:20;;;;;;;8.82;2.15;;;;;;;33.51;27.34;101195.53;4955174;29;20510;-62
2022/06/18 13:07:22;;;;;;;168.48;9.25;;;;;;;33.26;28.06;101187.25;4952497;29;20042;-61
2022/06/18 13:10:35;;;;;;;13.98;2.17;;;;;;;33.02;28.04;101182.03;4954492;28;20047;-61
2022/06/18 13:13:43;;;;;;;10.02;1.80;;;;;;;33.04;27.74;101175.94;4953906;29;20062;-62
2022/06/18 13:16:42;;;;;;;2.70;1.65;;;;;;;33.00;28.70;101169.66;4954989;29;20054;-61
2022/06/18 13:19:35;;;;;;;5.03;2.58;;;;;;;32.87;28.18;101169.69;4955138;29;20518;-62
2022/06/18 13:22:40;;;;;;;9.63;1.92;;;;;;;32.86;29.56;101168.16;4959020;28;20054;-61
2022/06/18 13:28:33;;;;;;;4.93;1.80;;;;;;;33.12;28.31;101156.75;4954335;29;20066;-61
2022/06/18 13:31:26;;;;;;;1.90;1.50;;;;;;;33.21;28.33;101154.78;4957014;28;20399;-62
2022/06/18 13:34:39;;;;;;;4.95;2.05;;;;;;;32.73;28.39;101150.50;4952108;28;20046;-60
2022/06/18 13:37:39;;;;;;;3.90;1.90;;;;;;;32.72;27.98;101143.28;4953844;28;20666;-61
2022/06/18 13:40:42;;;;;;;5.72;2.10;;;;;;;32.90;28.30;101125.75;4955184;28;20050;-61